Time;durP1;ratioP1;P1;durP2;ratioP2;P2;SDS_P1;SDS_P2;PMS_P1;PMS_P2;Temp;Humidity;BMP_temperature;BMP_pressure;BME280_temperature;BME280_humidity;BME280_pressure;Samples;Min_cycle;Max_cycle;Signal;HPM_P1;HPM_P2
2023/08/29 00:00:09;;;;;;;1.30;1.13;;;;;;;24.30;41.17;92828.19;512115;28;1700;-45
2023/08/29 00:00:26;;;;;;;1.20;1.10;;;;;;;24.31;41.25;92833.16;513788;28;1033;-45
2023/08/29 00:00:41;;;;;;;1.40;1.10;;;;;;;24.31;41.37;92829.59;512670;28;1082;-46
2023/08/29 00:00:57;;;;;;;1.40;1.20;;;;;;;24.30;41.41;92826.06;511974;28;813;-46
2023/08/29 00:01:13;;;;;;;1.30;1.20;;;;;;;24.30;41.14;92834.53;512906;28;809;-45
2023/08/29 00:01:28;;;;;;;1.30;1.20;;;;;;;24.29;41.46;92824.63;513893;28;1006;-46
2023/08/29 00:01:46;;;;;;;1.30;1.20;;;;;;;24.27;41.18;92829.47;513885;28;1178;-46
2023/08/29 00:02:02;;;;;;;1.30;1.20;;;;;;;24.26;41.30;92825.19;513847;28;868;-46
2023/08/29 00:02:17;;;;;;;1.20;1.10;;;;;;;24.25;41.28;92824.50;513860;28;887;-47
2023/08/29 00:02:33;;;;;;;1.20;1.10;;;;;;;24.24;41.24;92827.97;513827;28;857;-47
2023/08/29 00:02:48;;;;;;;1.40;1.10;;;;;;;24.25;41.18;92826.59;514005;28;785;-46
2023/08/29 00:03:04;;;;;;;1.57;1.20;;;;;;;24.23;41.24;92832.91;513923;28;925;-46
2023/08/29 00:03:19;;;;;;;2.92;1.40;;;;;;;24.24;41.26;92813.84;513873;28;1103;-46
2023/08/29 00:03:34;;;;;;;4.20;1.23;;;;;;;24.22;41.22;92819.44;514017;28;1106;-47
2023/08/29 00:03:51;;;;;;;2.60;1.10;;;;;;;24.22;41.08;92816.59;513869;28;816;-46
2023/08/29 00:04:06;;;;;;;1.70;1.30;;;;;;;24.23;41.50;92824.44;513900;28;864;-46
2023/08/29 00:04:22;;;;;;;1.23;1.13;;;;;;;24.24;41.45;92825.13;513370;28;1743;-46
2023/08/29 00:04:37;;;;;;;1.20;1.10;;;;;;;24.24;41.24;92827.97;512702;28;840;-46
2023/08/29 00:04:53;;;;;;;1.67;1.33;;;;;;;24.24;41.16;92814.56;513585;28;1664;-46
2023/08/29 00:05:09;;;;;;;1.80;1.40;;;;;;;24.15;41.26;92810.03;513870;28;1138;-46
2023/08/29 00:05:27;;;;;;;1.80;1.40;;;;;;;24.26;41.30;92822.38;513977;28;1134;-45
2023/08/29 00:05:42;;;;;;;1.50;1.20;;;;;;;24.26;41.03;92819.56;513834;28;880;-46
2023/08/29 00:06:02;;;;;;;1.17;1.07;;;;;;;24.21;41.15;92813.09;513921;28;786;-47
2023/08/29 00:06:17;;;;;;;1.20;1.10;;;;;;;24.27;41.32;92824.56;513894;28;1186;-45
2023/08/29 00:06:32;;;;;;;1.20;1.10;;;;;;;24.27;41.02;92821.00;513121;28;1182;-45
2023/08/29 00:06:48;;;;;;;1.20;1.10;;;;;;;24.28;41.42;92826.00;513962;28;859;-47
2023/08/29 00:07:03;;;;;;;1.30;1.20;;;;;;;24.28;41.57;92823.16;513218;28;1760;-46
2023/08/29 00:07:19;;;;;;;1.30;1.20;;;;;;;24.29;41.65;92830.28;513381;28;1193;-46
2023/08/29 00:07:35;;;;;;;1.23;1.13;;;;;;;24.27;41.45;92816.09;513549;28;837;-46
2023/08/29 00:07:50;;;;;;;1.20;1.10;;;;;;;24.30;41.15;92819.72;512470;28;1152;-45
2023/08/29 00:08:06;;;;;;;1.30;1.20;;;;;;;24.29;41.08;92821.81;513895;28;809;-45
2023/08/29 00:08:21;;;;;;;2.17;1.30;;;;;;;24.29;41.25;92826.72;513928;28;861;-46
2023/08/29 00:08:36;;;;;;;2.63;1.27;;;;;;;24.28;41.24;92822.47;513993;28;777;-46
2023/08/29 00:08:52;;;;;;;1.70;1.23;;;;;;;24.28;40.88;92820.34;513861;28;1123;-45
2023/08/29 00:09:07;;;;;;;1.35;1.17;;;;;;;24.28;41.45;92828.81;513947;28;845;-46
2023/08/29 00:09:22;;;;;;;1.30;1.20;;;;;;;24.26;41.31;92816.75;512807;28;1084;-47
2023/08/29 00:09:38;;;;;;;1.40;1.30;;;;;;;24.25;41.35;92813.22;514067;28;787;-46
2023/08/29 00:09:53;;;;;;;1.47;1.37;;;;;;;24.26;41.45;92813.91;513856;28;1065;-45
2023/08/29 00:10:09;;;;;;;1.40;1.25;;;;;;;24.25;41.59;92820.94;513994;28;817;-46
2023/08/29 00:10:24;;;;;;;1.30;1.20;;;;;;;24.25;41.38;92818.13;513938;28;873;-46
2023/08/29 00:10:40;;;;;;;1.40;1.30;;;;;;;24.25;41.45;92818.13;513835;28;2495;-46
2023/08/29 00:10:56;;;;;;;1.83;1.33;;;;;;;24.21;41.38;92815.19;513715;28;1119;-45
2023/08/29 00:11:11;;;;;;;1.67;1.17;;;;;;;24.26;41.69;92816.75;513233;28;1672;-47
2023/08/29 00:11:27;;;;;;;1.20;1.10;;;;;;;24.25;41.62;92821.69;511909;28;915;-45
2023/08/29 00:11:43;;;;;;;2.05;1.00;;;;;;;24.26;41.36;92828.75;512824;28;1035;-45
2023/08/29 00:11:59;;;;;;;3.20;1.40;;;;;;;24.19;41.50;92810.16;513807;28;867;-45
2023/08/29 00:12:15;;;;;;;2.20;1.37;;;;;;;24.27;41.24;92823.84;512959;28;909;-45
2023/08/29 00:12:32;;;;;;;1.40;1.20;;;;;;;24.21;41.71;92809.53;513746;28;1123;-47
2023/08/29 00:12:47;;;;;;;1.65;1.25;;;;;;;24.29;41.45;92810.53;513991;28;807;-46
2023/08/29 00:13:02;;;;;;;1.20;1.10;;;;;;;24.29;41.75;92826.72;513919;28;820;-45
2023/08/29 00:13:18;;;;;;;1.35;1.25;;;;;;;24.30;41.45;92822.53;513939;28;798;-46
2023/08/29 00:13:33;;;;;;;1.50;1.40;;;;;;;24.29;41.40;92810.53;513951;28;850;-47
2023/08/29 00:13:49;;;;;;;1.50;1.40;;;;;;;24.29;41.54;92815.44;513773;28;1199;-46
2023/08/29 00:14:05;;;;;;;1.25;1.15;;;;;;;24.28;41.65;92820.34;513865;28;923;-46
2023/08/29 00:14:20;;;;;;;4.00;1.55;;;;;;;24.28;41.40;92819.66;513936;28;1017;-45
2023/08/29 00:14:36;;;;;;;3.40;1.57;;;;;;;24.26;41.51;92820.28;513964;28;859;-45
2023/08/29 00:14:51;;;;;;;1.23;1.13;;;;;;;24.26;41.58;92820.28;513958;28;797;-45
2023/08/29 00:15:08;;;;;;;1.83;1.10;;;;;;;24.20;41.54;92817.28;513245;28;1996;-44
2023/08/29 00:15:23;;;;;;;1.98;1.30;;;;;;;24.24;41.75;92820.22;513777;28;980;-45
2023/08/29 00:15:39;;;;;;;1.57;1.47;;;;;;;24.25;41.75;92821.69;512791;28;1172;-45
2023/08/29 00:15:55;;;;;;;1.60;1.43;;;;;;;24.26;41.65;92825.94;513795;28;890;-45
2023/08/29 00:16:16;;;;;;;1.60;1.30;;;;;;;24.28;41.57;92822.47;513814;28;1392;-45
2023/08/29 00:16:31;;;;;;;1.40;1.30;;;;;;;24.27;41.76;92818.19;513913;28;854;-45
2023/08/29 00:16:46;;;;;;;1.30;1.20;;;;;;;24.29;41.85;92819.00;513799;28;1230;-46
2023/08/29 00:17:04;;;;;;;1.33;1.23;;;;;;;24.28;41.25;92817.53;513859;28;821;-47
2023/08/29 00:17:19;;;;;;;1.63;1.30;;;;;;;24.26;41.26;92820.28;513779;28;1919;-46
2023/08/29 00:17:34;;;;;;;1.80;1.30;;;;;;;24.27;41.08;92821.00;513924;28;986;-45
2023/08/29 00:17:50;;;;;;;1.55;1.38;;;;;;;24.27;41.12;92815.38;513084;28;1747;-46
2023/08/29 00:18:05;;;;;;;1.50;1.40;;;;;;;24.26;41.17;92819.56;513048;28;869;-44
2023/08/29 00:18:21;;;;;;;1.30;1.20;;;;;;;24.26;41.17;92817.47;513275;28;996;-46
2023/08/29 00:18:37;;;;;;;1.75;1.20;;;;;;;24.27;41.29;92813.28;513989;28;825;-45
2023/08/29 00:18:52;;;;;;;2.07;1.30;;;;;;;24.27;41.05;92821.75;513789;28;869;-46
2023/08/29 00:19:07;;;;;;;1.60;1.30;;;;;;;24.26;41.55;92822.38;513939;28;789;-46
2023/08/29 00:19:23;;;;;;;1.60;1.23;;;;;;;24.25;41.31;92815.31;513873;28;861;-46
2023/08/29 00:19:38;;;;;;;1.10;1.00;;;;;;;24.25;41.43;92815.31;513881;28;857;-46
2023/08/29 00:19:53;;;;;;;1.10;1.00;;;;;;;24.24;41.14;92819.50;513751;28;1111;-46
2023/08/29 00:20:10;;;;;;;1.07;0.97;;;;;;;24.22;41.62;92819.44;513914;28;771;-46
2023/08/29 00:20:25;;;;;;;1.00;1.00;;;;;;;24.22;41.70;92811.69;513859;28;939;-46
2023/08/29 00:20:41;;;;;;;1.23;1.13;;;;;;;24.19;41.78;92812.28;513932;28;877;-46
2023/08/29 00:20:56;;;;;;;1.53;1.27;;;;;;;24.21;41.48;92818.72;513850;28;865;-46
2023/08/29 00:21:11;;;;;;;1.60;1.35;;;;;;;24.21;41.26;92815.91;513139;28;1755;-46
2023/08/29 00:21:27;;;;;;;1.47;1.30;;;;;;;24.20;41.44;92813.72;513375;28;1577;-46
2023/08/29 00:21:42;;;;;;;1.20;1.10;;;;;;;24.21;41.51;92815.91;513102;28;988;-46
2023/08/29 00:21:58;;;;;;;1.13;1.10;;;;;;;24.22;41.51;92822.97;511881;28;1111;-46
2023/08/29 00:22:14;;;;;;;1.52;1.30;;;;;;;24.23;41.64;92823.69;512516;28;1722;-46
2023/08/29 00:22:30;;;;;;;1.92;1.42;;;;;;;24.22;41.94;92820.16;513948;28;839;-46
2023/08/29 00:22:45;;;;;;;1.80;1.30;;;;;;;24.22;42.07;92806.06;513857;28;773;-45
2023/08/29 00:23:01;;;;;;;1.73;1.30;;;;;;;24.21;41.52;92818.00;513809;28;1179;-48
2023/08/29 00:23:16;;;;;;;1.50;1.40;;;;;;;24.20;41.69;92813.72;513850;28;829;-44
2023/08/29 00:23:31;;;;;;;1.27;1.17;;;;;;;24.21;41.94;92820.81;513883;28;892;-46
2023/08/29 00:23:50;;;;;;;1.23;1.13;;;;;;;24.18;41.81;92814.38;513902;28;924;-46
2023/08/29 00:24:06;;;;;;;1.33;1.20;;;;;;;24.19;41.77;92817.94;513862;28;971;-45
2023/08/29 00:24:21;;;;;;;1.35;1.20;;;;;;;24.18;41.80;92817.19;513747;28;1080;-44
2023/08/29 00:24:37;;;;;;;1.40;1.20;;;;;;;24.16;42.04;92816.41;513937;28;860;-46
2023/08/29 00:24:52;;;;;;;1.42;1.15;;;;;;;24.10;41.67;92817.63;513907;28;853;-45
2023/08/29 00:25:08;;;;;;;1.73;1.20;;;;;;;24.09;41.82;92810.56;513248;28;1759;-45
2023/08/29 00:25:23;;;;;;;1.33;1.13;;;;;;;24.12;42.13;92816.28;512916;28;854;-46
2023/08/29 00:25:39;;;;;;;1.20;1.10;;;;;;;24.12;42.05;92813.44;513025;28;802;-45
2023/08/29 00:25:54;;;;;;;1.40;1.30;;;;;;;24.12;41.72;92817.00;512876;28;960;-45
2023/08/29 00:26:10;;;;;;;2.53;1.50;;;;;;;24.12;41.88;92816.28;513835;28;888;-46
2023/08/29 00:26:25;;;;;;;3.10;1.40;;;;;;;24.13;42.19;92824.06;513923;28;873;-45
2023/08/29 00:26:41;;;;;;;1.75;1.05;;;;;;;24.13;41.75;92817.72;513848;28;892;-46
2023/08/29 00:26:56;;;;;;;1.42;0.90;;;;;;;24.13;42.13;92812.09;513962;28;850;-47
2023/08/29 00:27:12;;;;;;;1.77;1.10;;;;;;;24.14;41.67;92816.34;513368;28;884;-46
2023/08/29 00:27:27;;;;;;;1.63;1.20;;;;;;;24.14;41.76;92814.25;513231;28;1171;-45
2023/08/29 00:27:42;;;;;;;1.42;1.33;;;;;;;24.15;42.15;92815.69;513536;28;1849;-46
2023/08/29 00:27:58;;;;;;;1.47;1.37;;;;;;;24.15;42.30;92815.69;512552;28;817;-47
2023/08/29 00:28:13;;;;;;;1.60;1.37;;;;;;;24.16;42.10;92813.59;513720;28;845;-46
2023/08/29 00:28:29;;;;;;;1.70;1.35;;;;;;;24.16;41.87;92808.66;511905;28;830;-46
2023/08/29 00:28:44;;;;;;;1.73;1.40;;;;;;;24.15;42.13;92818.50;511863;28;872;-45
2023/08/29 00:29:00;;;;;;;1.85;1.25;;;;;;;24.14;41.91;92817.06;513620;28;1119;-45
2023/08/29 00:29:16;;;;;;;1.57;1.07;;;;;;;24.14;42.09;92810.69;513882;28;775;-44
2023/08/29 00:29:31;;;;;;;1.45;1.30;;;;;;;24.12;42.05;92811.38;513855;28;835;-45
2023/08/29 00:29:46;;;;;;;1.40;1.30;;;;;;;24.13;41.95;92815.63;513952;28;928;-45
2023/08/29 00:30:02;;;;;;;1.27;1.17;;;;;;;24.13;42.15;92814.91;513799;28;870;-45
2023/08/29 00:30:17;;;;;;;1.30;1.10;;;;;;;24.12;42.54;92816.28;513927;28;1123;-46
2023/08/29 00:30:35;;;;;;;1.40;1.30;;;;;;;24.12;42.64;92817.00;513908;28;866;-45
2023/08/29 00:30:50;;;;;;;1.50;1.40;;;;;;;24.12;42.34;92817.00;513902;28;884;-45
2023/08/29 00:31:06;;;;;;;1.37;1.20;;;;;;;24.12;42.62;92822.66;513690;28;1724;-46
2023/08/29 00:31:21;;;;;;;1.60;1.25;;;;;;;24.11;42.27;92818.38;512885;28;943;-46
2023/08/29 00:31:37;;;;;;;1.60;1.27;;;;;;;24.10;42.29;92814.81;513977;28;754;-47
2023/08/29 00:31:52;;;;;;;1.20;1.10;;;;;;;24.10;42.27;92817.63;513736;28;1601;-45
2023/08/29 00:32:07;;;;;;;1.10;1.00;;;;;;;24.09;42.05;92813.38;513923;28;985;-45
2023/08/29 00:32:23;;;;;;;1.20;1.10;;;;;;;24.08;42.03;92816.88;513840;28;1141;-44
2023/08/29 00:32:39;;;;;;;1.33;1.15;;;;;;;24.06;42.29;92820.31;513921;28;806;-44
2023/08/29 00:32:54;;;;;;;1.20;1.00;;;;;;;24.07;41.95;92823.88;513920;28;840;-44
2023/08/29 00:33:10;;;;;;;1.23;1.03;;;;;;;24.06;42.33;92823.16;513781;28;1083;-45
2023/08/29 00:33:25;;;;;;;1.53;1.23;;;;;;;24.05;42.30;92813.25;513450;28;1009;-46
2023/08/29 00:33:40;;;;;;;1.48;1.33;;;;;;;24.06;42.29;92816.81;513824;28;833;-45
2023/08/29 00:33:56;;;;;;;1.27;1.17;;;;;;;24.05;42.46;92818.91;512965;28;1766;-45
2023/08/29 00:34:12;;;;;;;1.50;1.40;;;;;;;24.06;42.59;92816.81;512513;28;864;-45
2023/08/29 00:34:27;;;;;;;2.00;1.43;;;;;;;24.05;42.67;92810.44;512904;28;1509;-46
2023/08/29 00:34:42;;;;;;;2.20;1.30;;;;;;;24.06;42.61;92811.88;513781;28;839;-44
2023/08/29 00:34:58;;;;;;;1.67;1.20;;;;;;;24.08;42.38;92814.06;513802;28;1167;-45
2023/08/29 00:35:13;;;;;;;1.30;1.13;;;;;;;24.07;42.63;92810.50;513789;28;900;-45
2023/08/29 00:35:29;;;;;;;1.47;1.30;;;;;;;24.07;42.83;92813.31;513900;28;931;-46
2023/08/29 00:35:46;;;;;;;1.92;1.30;;;;;;;24.07;42.85;92816.16;513761;28;908;-45
2023/08/29 00:36:01;;;;;;;1.77;1.33;;;;;;;24.08;42.54;92808.41;512636;28;1693;-46
2023/08/29 00:36:17;;;;;;;1.40;1.23;;;;;;;24.08;42.41;92814.75;511833;28;1080;-45
2023/08/29 00:36:32;;;;;;;1.67;1.20;;;;;;;24.09;42.34;92816.22;513851;28;911;-44
2023/08/29 00:36:47;;;;;;;1.67;1.20;;;;;;;24.09;42.27;92821.84;513899;28;835;-45
2023/08/29 00:37:03;;;;;;;1.83;1.10;;;;;;;24.11;42.76;92815.53;513891;28;806;-45
2023/08/29 00:37:19;;;;;;;1.52;1.10;;;;;;;24.11;42.43;92809.91;513783;28;1910;-45
2023/08/29 00:37:34;;;;;;;1.30;1.20;;;;;;;24.10;42.35;92814.81;513931;28;832;-46
2023/08/29 00:37:49;;;;;;;1.20;1.10;;;;;;;24.10;42.50;92814.81;513196;28;1739;-45
2023/08/29 00:38:05;;;;;;;1.20;1.07;;;;;;;24.10;42.64;92812.00;512912;28;856;-45
2023/08/29 00:38:21;;;;;;;1.73;1.10;;;;;;;24.10;42.55;92814.81;512187;28;915;-45
2023/08/29 00:38:36;;;;;;;1.97;1.30;;;;;;;24.11;42.99;92804.25;513870;28;881;-45
2023/08/29 00:38:51;;;;;;;1.48;1.33;;;;;;;24.09;42.35;92813.38;513536;28;980;-45
2023/08/29 00:39:07;;;;;;;1.70;1.30;;;;;;;24.10;42.70;92817.63;511877;28;1698;-44
2023/08/29 00:39:23;;;;;;;1.70;1.27;;;;;;;24.09;42.36;92816.22;512533;28;1077;-45
2023/08/29 00:39:38;;;;;;;1.27;1.10;;;;;;;24.09;42.42;92818.31;513859;28;868;-46
2023/08/29 00:39:54;;;;;;;2.45;1.30;;;;;;;24.08;42.41;92811.22;513772;28;1133;-45
2023/08/29 00:40:10;;;;;;;2.17;1.33;;;;;;;24.00;42.27;92797.53;511858;28;1181;-45
2023/08/29 00:40:30;;;;;;;1.40;1.30;;;;;;;24.07;42.16;92809.78;511810;28;919;-45
2023/08/29 00:40:45;;;;;;;1.30;1.20;;;;;;;24.07;42.46;92813.31;511799;28;1582;-45
2023/08/29 00:41:01;;;;;;;1.50;1.20;;;;;;;24.07;42.17;92809.78;513660;28;1175;-46
2023/08/29 00:41:16;;;;;;;1.65;1.30;;;;;;;24.06;42.29;92805.53;512904;28;1803;-45
2023/08/29 00:41:31;;;;;;;1.43;1.23;;;;;;;24.05;42.19;92810.44;513046;28;758;-45
2023/08/29 00:41:49;;;;;;;1.25;1.15;;;;;;;24.04;42.39;92814.63;512712;28;871;-46
2023/08/29 00:42:04;;;;;;;3.17;1.25;;;;;;;24.03;42.33;92812.44;511783;28;938;-46
2023/08/29 00:42:19;;;;;;;3.13;1.10;;;;;;;24.01;42.69;92815.19;512954;28;1074;-46
2023/08/29 00:42:35;;;;;;;1.53;1.10;;;;;;;24.01;42.72;92809.53;513954;28;828;-46
2023/08/29 00:42:50;;;;;;;1.40;1.20;;;;;;;23.97;42.42;92815.75;513853;28;959;-45
2023/08/29 00:43:06;;;;;;;1.67;1.50;;;;;;;23.97;42.46;92815.06;513889;28;763;-45
2023/08/29 00:43:21;;;;;;;1.83;1.63;;;;;;;23.97;42.62;92810.13;513807;28;821;-46
2023/08/29 00:43:37;;;;;;;1.23;1.13;;;;;;;23.86;42.51;92799.88;513599;28;1528;-46
2023/08/29 00:43:53;;;;;;;1.38;1.15;;;;;;;23.96;42.64;92816.41;513444;28;1171;-45
2023/08/29 00:44:08;;;;;;;1.60;1.43;;;;;;;23.96;42.67;92819.97;513680;28;915;-45
2023/08/29 00:44:23;;;;;;;2.00;1.50;;;;;;;23.96;42.58;92819.97;513749;28;786;-45
2023/08/29 00:44:39;;;;;;;1.55;1.25;;;;;;;23.96;43.01;92813.59;513675;28;874;-46
2023/08/29 00:44:54;;;;;;;1.33;1.23;;;;;;;23.97;42.92;92815.06;512748;28;1739;-45
2023/08/29 00:45:10;;;;;;;2.33;1.30;;;;;;;23.95;42.81;92810.03;511941;28;798;-45
2023/08/29 00:45:27;;;;;;;3.05;1.20;;;;;;;23.96;42.90;92810.78;513342;28;1047;-45
2023/08/29 00:45:43;;;;;;;1.60;1.23;;;;;;;23.94;42.91;92819.16;513657;28;924;-44
2023/08/29 00:45:58;;;;;;;1.48;1.20;;;;;;;23.85;42.99;92806.88;513733;28;876;-45
2023/08/29 00:46:15;;;;;;;1.65;1.30;;;;;;;23.94;42.87;92814.25;515604;28;785;-45
2023/08/29 00:46:30;;;;;;;1.58;1.40;;;;;;;23.93;42.62;92809.28;515734;28;852;-44
2023/08/29 00:46:45;;;;;;;1.63;1.30;;;;;;;23.94;43.02;92811.44;515751;28;793;-44
2023/08/29 00:47:03;;;;;;;1.58;1.20;;;;;;;23.96;43.09;92814.31;515646;28;1114;-44
2023/08/29 00:47:19;;;;;;;1.30;1.20;;;;;;;23.96;43.06;92814.31;515683;28;962;-44
2023/08/29 00:47:34;;;;;;;1.40;1.30;;;;;;;23.97;42.84;92807.28;515693;28;955;-45
2023/08/29 00:47:50;;;;;;;1.83;1.40;;;;;;;23.98;42.92;92808.75;515613;28;861;-45
2023/08/29 00:48:06;;;;;;;1.60;1.38;;;;;;;23.98;42.78;92808.03;514971;28;912;-45
2023/08/29 00:48:22;;;;;;;1.40;1.30;;;;;;;23.98;42.86;92811.56;513801;28;1217;-46
2023/08/29 00:48:38;;;;;;;1.38;1.20;;;;;;;24.00;42.93;92820.09;513251;28;1739;-44
2023/08/29 00:48:54;;;;;;;1.30;1.20;;;;;;;23.99;42.75;92818.66;512724;28;849;-44
2023/08/29 00:49:10;;;;;;;1.20;1.10;;;;;;;23.98;42.63;92810.84;512208;28;1076;-45
2023/08/29 00:49:26;;;;;;;1.23;1.13;;;;;;;23.99;42.59;92809.47;513738;28;864;-45
2023/08/29 00:49:42;;;;;;;1.30;1.20;;;;;;;23.99;42.73;92807.38;512978;28;883;-45
2023/08/29 00:49:57;;;;;;;1.52;1.23;;;;;;;23.99;43.00;92809.47;512860;28;1140;-45
2023/08/29 00:50:13;;;;;;;1.50;1.40;;;;;;;23.97;42.96;92807.28;513627;28;864;-46
2023/08/29 00:50:30;;;;;;;1.60;1.42;;;;;;;23.97;42.81;92807.28;511758;29;901;-44
2023/08/29 00:50:45;;;;;;;1.70;1.40;;;;;;;23.97;43.13;92815.06;511068;29;980;-45
2023/08/29 00:51:01;;;;;;;1.70;1.40;;;;;;;23.96;42.95;92822.78;510459;29;923;-45
2023/08/29 00:51:17;;;;;;;1.67;1.50;;;;;;;23.82;43.03;92799.72;509758;29;1709;-45
2023/08/29 00:51:32;;;;;;;1.90;1.45;;;;;;;23.91;42.82;92812.72;509101;29;1246;-46
2023/08/29 00:51:48;;;;;;;1.65;1.35;;;;;;;23.90;43.07;92816.22;509621;29;907;-45
2023/08/29 00:52:05;;;;;;;1.45;1.35;;;;;;;23.89;43.11;92818.28;509697;29;881;-44
2023/08/29 00:52:20;;;;;;;1.45;1.35;;;;;;;23.88;43.21;92814.06;510425;29;1045;-44
2023/08/29 00:52:36;;;;;;;2.80;1.10;;;;;;;23.87;43.25;92818.22;511734;29;844;-44
2023/08/29 00:52:54;;;;;;;2.77;1.13;;;;;;;23.87;43.00;92812.59;511629;29;1159;-44
2023/08/29 00:53:09;;;;;;;1.40;1.20;;;;;;;23.88;42.80;92814.06;511664;29;815;-46
2023/08/29 00:53:25;;;;;;;1.43;1.23;;;;;;;23.89;42.98;92820.38;512620;28;789;-44
2023/08/29 00:53:41;;;;;;;1.48;1.33;;;;;;;23.88;42.98;92813.31;513716;28;932;-44
2023/08/29 00:53:56;;;;;;;1.40;1.30;;;;;;;23.89;43.33;92814.75;511086;28;2010;-46
2023/08/29 00:54:14;;;;;;;1.40;1.30;;;;;;;23.86;43.22;92808.34;510945;29;760;-44
2023/08/29 00:54:29;;;;;;;1.40;1.30;;;;;;;23.88;43.44;92814.06;511356;29;1175;-45
2023/08/29 00:54:45;;;;;;;1.40;1.10;;;;;;;23.89;43.04;92814.75;512617;28;817;-45
2023/08/29 00:55:02;;;;;;;1.67;1.07;;;;;;;23.89;43.34;92809.84;511708;29;806;-45
2023/08/29 00:55:17;;;;;;;1.25;1.10;;;;;;;23.90;43.12;92819.03;511797;28;871;-45
2023/08/29 00:55:34;;;;;;;1.50;1.20;;;;;;;23.88;43.25;92811.22;511744;28;884;-45
2023/08/29 00:55:50;;;;;;;2.13;1.20;;;;;;;23.88;43.14;92811.22;512634;28;1171;-44
2023/08/29 00:56:05;;;;;;;1.77;1.10;;;;;;;23.92;43.05;92817.00;511683;29;817;-45
2023/08/29 00:56:21;;;;;;;1.25;1.15;;;;;;;23.91;43.42;92815.53;511673;29;805;-44
2023/08/29 00:56:36;;;;;;;1.40;1.30;;;;;;;23.92;43.16;92811.38;511438;28;1764;-45
2023/08/29 00:56:52;;;;;;;1.60;1.40;;;;;;;23.93;42.99;92814.91;512400;28;848;-43
2023/08/29 00:57:07;;;;;;;1.40;1.30;;;;;;;23.93;43.49;92815.63;511684;29;853;-44
2023/08/29 00:57:23;;;;;;;1.23;1.13;;;;;;;23.94;43.10;92811.44;511591;29;1993;-44
2023/08/29 00:57:38;;;;;;;2.00;1.10;;;;;;;23.92;43.41;92808.53;511675;29;985;-44
2023/08/29 00:57:59;;;;;;;2.00;1.20;;;;;;;23.95;43.53;92806.53;511975;28;852;-43
2023/08/29 00:58:15;;;;;;;1.75;1.30;;;;;;;23.94;43.32;92805.78;513708;28;932;-45
2023/08/29 00:58:30;;;;;;;2.83;1.30;;;;;;;23.95;43.50;92814.97;513710;28;1003;-44
2023/08/29 00:58:46;;;;;;;1.73;1.20;;;;;;;23.95;43.25;92812.16;511666;29;815;-45
2023/08/29 00:59:02;;;;;;;1.20;1.10;;;;;;;23.94;43.35;92805.78;512706;28;936;-44
2023/08/29 00:59:18;;;;;;;1.30;1.10;;;;;;;23.92;43.32;92802.19;513136;28;1868;-45
2023/08/29 00:59:33;;;;;;;1.48;1.20;;;;;;;23.95;43.30;92809.34;512689;28;820;-44
2023/08/29 00:59:49;;;;;;;1.40;1.30;;;;;;;23.94;43.27;92805.78;510090;29;1441;-44
2023/08/29 01:00:08;;;;;;;1.57;1.30;;;;;;;23.95;43.51;92812.88;509649;29;881;-45
2023/08/29 01:00:25;;;;;;;1.15;1.05;;;;;;;23.95;43.38;92814.97;509571;29;964;-47
2023/08/29 01:00:41;;;;;;;1.27;1.17;;;;;;;23.95;43.34;92810.03;510873;29;932;-45
2023/08/29 01:00:57;;;;;;;1.40;1.30;;;;;;;23.94;43.22;92810.69;511715;28;845;-46
2023/08/29 01:01:16;;;;;;;3.00;1.50;;;;;;;23.93;43.03;92809.97;511692;28;808;-45
2023/08/29 01:01:33;;;;;;;2.53;1.40;;;;;;;23.91;43.10;92812.72;511555;28;860;-44
2023/08/29 01:01:48;;;;;;;1.40;1.30;;;;;;;23.91;43.00;92804.28;511657;28;1123;-45
2023/08/29 01:02:04;;;;;;;1.35;1.23;;;;;;;23.90;43.56;92811.28;513513;28;938;-45
2023/08/29 01:02:19;;;;;;;1.73;1.37;;;;;;;23.90;43.41;92804.94;513519;28;880;-44
2023/08/29 01:02:35;;;;;;;1.87;1.50;;;;;;;23.89;43.49;92807.03;514602;28;1711;-45
2023/08/29 01:02:50;;;;;;;1.83;1.50;;;;;;;23.87;43.57;92804.13;515677;28;884;-45
2023/08/29 01:03:06;;;;;;;1.73;1.47;;;;;;;23.90;43.42;92807.75;513934;28;898;-46
2023/08/29 01:03:21;;;;;;;1.38;1.27;;;;;;;23.89;43.47;92806.28;513882;28;1177;-44
2023/08/29 01:03:38;;;;;;;1.20;1.10;;;;;;;23.89;43.58;92809.84;513910;28;763;-45
2023/08/29 01:03:54;;;;;;;1.17;1.08;;;;;;;23.89;43.26;92804.19;511771;28;958;-47
2023/08/29 01:04:10;;;;;;;1.13;1.02;;;;;;;23.88;43.24;92807.69;511824;28;875;-45
2023/08/29 01:04:25;;;;;;;1.30;1.20;;;;;;;23.87;43.12;92806.94;511726;28;1131;-45
2023/08/29 01:04:40;;;;;;;1.50;1.30;;;;;;;23.88;43.37;92802.03;511686;29;852;-45
2023/08/29 01:04:56;;;;;;;1.80;1.30;;;;;;;23.86;43.32;92805.53;512645;28;1120;-45
2023/08/29 01:05:11;;;;;;;1.85;1.40;;;;;;;23.86;43.28;92807.63;512770;28;1766;-45
2023/08/29 01:05:28;;;;;;;1.43;1.33;;;;;;;23.87;43.31;92803.41;513048;28;1569;-46
2023/08/29 01:05:43;;;;;;;1.40;1.30;;;;;;;23.87;43.52;92811.88;512343;28;859;-45
2023/08/29 01:05:59;;;;;;;1.67;1.43;;;;;;;23.86;43.44;92811.16;511758;28;920;-44
2023/08/29 01:06:14;;;;;;;1.50;1.30;;;;;;;23.86;43.50;92811.16;512904;28;1032;-45
2023/08/29 01:06:33;;;;;;;1.20;1.10;;;;;;;23.85;43.32;92803.34;513431;28;1130;-45
2023/08/29 01:06:49;;;;;;;1.50;1.40;;;;;;;23.86;43.15;92807.63;513445;28;2454;-46
2023/08/29 01:07:05;;;;;;;1.77;1.67;;;;;;;23.86;43.45;92807.63;513378;28;1351;-45
2023/08/29 01:07:20;;;;;;;1.70;1.60;;;;;;;23.86;43.57;92808.34;514685;28;1100;-45
2023/08/29 01:07:36;;;;;;;1.40;1.23;;;;;;;23.86;43.17;92805.53;515560;28;888;-44
2023/08/29 01:07:53;;;;;;;1.43;1.30;;;;;;;23.86;43.38;92805.53;513610;28;1691;-46
2023/08/29 01:08:08;;;;;;;1.40;1.30;;;;;;;23.87;43.56;92809.03;512137;28;846;-45
2023/08/29 01:08:24;;;;;;;1.37;1.20;;;;;;;23.85;43.58;92801.25;511539;28;967;-45
2023/08/29 01:08:40;;;;;;;1.58;1.30;;;;;;;23.87;43.14;92811.88;512608;28;959;-45
2023/08/29 01:08:55;;;;;;;1.95;1.45;;;;;;;23.86;43.15;92804.78;512931;28;975;-45
2023/08/29 01:09:11;;;;;;;2.87;1.40;;;;;;;23.85;43.08;92809.72;513631;28;844;-45
2023/08/29 01:09:26;;;;;;;3.30;1.52;;;;;;;23.84;43.42;92807.53;513599;28;1229;-44
2023/08/29 01:09:42;;;;;;;2.07;1.43;;;;;;;23.83;43.55;92806.81;513618;28;825;-46
2023/08/29 01:09:57;;;;;;;1.38;1.27;;;;;;;23.83;43.27;92801.19;513421;28;785;-44
2023/08/29 01:10:13;;;;;;;2.50;1.40;;;;;;;23.85;43.51;92809.72;513623;28;785;-45
2023/08/29 01:10:37;;;;;;;3.05;1.40;;;;;;;23.83;43.22;92804.00;513299;28;1755;-46
2023/08/29 01:11:06;;;;;;;3.33;1.35;;;;;;;23.83;43.29;92809.63;513451;28;1115;-47
2023/08/29 01:11:30;;;;;;;2.38;1.48;;;;;;;23.81;43.59;92803.19;511751;28;1169;-46
2023/08/29 01:11:46;;;;;;;2.28;1.42;;;;;;;23.83;43.59;92818.09;513726;28;835;-45
2023/08/29 01:12:17;;;;;;;3.58;2.13;;;;;;;23.83;43.44;92811.72;513486;28;1071;-45
2023/08/29 01:12:45;;;;;;;1.40;1.30;;;;;;;23.82;43.40;92808.19;513512;28;923;-45
2023/08/29 01:13:24;;;;;;;1.73;1.20;;;;;;;23.83;43.50;92806.09;511569;28;949;-45
2023/08/29 01:13:49;;;;;;;1.17;1.02;;;;;;;23.82;43.77;92815.94;508916;29;1734;-44
2023/08/29 01:14:25;;;;;;;1.30;1.08;;;;;;;23.80;43.53;92810.22;510771;29;1337;-46
2023/08/29 01:14:45;;;;;;;1.40;1.30;;;;;;;23.79;43.38;92801.03;511550;29;1164;-45
2023/08/29 01:15:10;;;;;;;1.55;1.30;;;;;;;23.79;43.33;92815.13;511605;28;862;-44
2023/08/29 01:15:28;;;;;;;1.95;1.30;;;;;;;23.73;43.69;92798.00;509474;29;1973;-45
2023/08/29 01:15:46;;;;;;;2.13;1.40;;;;;;;23.80;43.67;92813.03;506395;29;1615;-44
2023/08/29 01:16:05;;;;;;;1.77;1.42;;;;;;;23.80;43.55;92799.66;507087;29;892;-46
2023/08/29 01:16:24;;;;;;;1.90;1.33;;;;;;;23.79;43.57;92805.94;505422;29;1814;-44
2023/08/29 01:16:56;;;;;;;1.50;1.25;;;;;;;23.78;43.42;92801.69;507322;29;1151;-44
2023/08/29 01:17:17;;;;;;;1.40;1.30;;;;;;;23.77;43.60;92814.34;507707;29;1977;-46
2023/08/29 01:17:41;;;;;;;1.95;1.30;;;;;;;23.74;43.57;92807.16;508067;29;883;-44
2023/08/29 01:18:00;;;;;;;1.45;1.20;;;;;;;23.74;43.61;92810.00;509527;29;868;-44
2023/08/29 01:18:18;;;;;;;1.70;1.15;;;;;;;23.74;43.60;92804.34;510781;29;874;-44
2023/08/29 01:18:34;;;;;;;1.83;1.45;;;;;;;23.75;43.72;92805.81;511573;28;1188;-44
2023/08/29 01:18:52;;;;;;;1.90;1.50;;;;;;;23.74;43.92;92799.44;513557;28;904;-45
2023/08/29 01:19:13;;;;;;;1.52;1.20;;;;;;;23.74;43.80;92804.34;511658;29;807;-45
2023/08/29 01:19:28;;;;;;;1.40;1.30;;;;;;;23.74;43.57;92799.44;509263;29;1847;-46
2023/08/29 01:19:48;;;;;;;1.37;1.27;;;;;;;23.71;43.61;92795.13;507629;29;858;-45